Time;durP1;ratioP1;P1;durP2;ratioP2;P2;SDS_P1;SDS_P2;PMS_P1;PMS_P2;Temp;Humidity;BMP_temperature;BMP_pressure;BME280_temperature;BME280_humidity;BME280_pressure;Samples;Min_cycle;Max_cycle;Signal;HPM_P1;HPM_P2
2021/05/09 00:00:22;;;;;;;1.20;1.10;;;;;18.10;99703.00;;;;2075815;28;20220;-63
2021/05/09 00:01:24;;;;;;;1.08;0.98;;;;;18.10;99706.00;;;;2079799;28;20226;-63
2021/05/09 00:02:25;;;;;;;1.45;0.90;;;;;18.00;99707.00;;;;2079823;28;20205;-63
2021/05/09 00:03:26;;;;;;;0.93;0.83;;;;;18.10;99707.00;;;;2079084;28;20318;-63
2021/05/09 00:04:26;;;;;;;0.80;0.67;;;;;18.10;99708.00;;;;2078952;28;20587;-63
2021/05/09 00:05:27;;;;;;;1.00;0.90;;;;;18.10;99707.00;;;;2079343;28;20782;-63
2021/05/09 00:06:27;;;;;;;1.20;0.90;;;;;18.10;99705.00;;;;2079651;28;20743;-63
2021/05/09 00:07:27;;;;;;;0.90;0.80;;;;;18.10;99697.00;;;;2079800;28;20210;-63
2021/05/09 00:08:28;;;;;;;0.80;0.80;;;;;18.10;99701.00;;;;2079682;28;20221;-63
2021/05/09 00:09:28;;;;;;;1.00;0.90;;;;;18.10;99696.00;;;;2079629;28;20210;-63
2021/05/09 00:10:28;;;;;;;0.70;0.60;;;;;18.10;99693.00;;;;2077439;28;20735;-62
2021/05/09 00:11:29;;;;;;;0.70;0.70;;;;;18.10;99692.00;;;;2079732;28;20686;-62
2021/05/09 00:12:29;;;;;;;1.00;0.80;;;;;18.00;99690.00;;;;2079659;28;20558;-62
2021/05/09 00:13:29;;;;;;;1.20;0.93;;;;;18.10;99695.00;;;;2079676;28;20209;-63
2021/05/09 00:14:30;;;;;;;1.00;0.90;;;;;18.10;99693.00;;;;2079290;28;20251;-63
2021/05/09 00:15:30;;;;;;;1.07;0.83;;;;;18.10;99690.00;;;;2079580;28;20256;-63
2021/05/09 00:16:32;;;;;;;0.90;0.80;;;;;18.10;99691.00;;;;2079645;28;20218;-62
2021/05/09 00:17:32;;;;;;;1.15;0.80;;;;;18.10;99695.00;;;;2079548;28;20209;-63
2021/05/09 00:18:33;;;;;;;1.03;0.93;;;;;18.10;99695.00;;;;2079250;28;20711;-63
2021/05/09 00:19:33;;;;;;;0.97;0.80;;;;;18.10;99691.00;;;;2079772;28;20580;-63
2021/05/09 00:20:33;;;;;;;1.03;0.93;;;;;18.10;99690.00;;;;2079504;28;20218;-62
2021/05/09 00:21:34;;;;;;;0.90;0.80;;;;;18.10;99685.00;;;;2078854;28;20244;-63
2021/05/09 00:22:34;;;;;;;0.93;0.83;;;;;18.10;99690.00;;;;2077171;28;20762;-63
2021/05/09 00:23:35;;;;;;;1.07;0.97;;;;;18.10;99679.00;;;;2079700;28;20217;-63
2021/05/09 00:24:35;;;;;;;0.80;0.80;;;;;18.10;99684.00;;;;2079550;28;20229;-63
2021/05/09 00:25:35;;;;;;;0.90;0.80;;;;;18.10;99687.00;;;;2079139;28;20213;-63
2021/05/09 00:26:36;;;;;;;0.90;0.80;;;;;18.00;99683.00;;;;2079005;28;20313;-63
2021/05/09 00:27:36;;;;;;;1.20;1.00;;;;;18.10;99679.00;;;;2079104;28;20819;-63
2021/05/09 00:28:36;;;;;;;1.10;1.00;;;;;18.10;99678.00;;;;2078500;28;20680;-63
2021/05/09 00:29:37;;;;;;;0.77;0.77;;;;;18.10;99685.00;;;;2078867;28;20218;-63
2021/05/09 00:30:37;;;;;;;0.90;0.80;;;;;18.10;99673.00;;;;2078516;28;20724;-63
2021/05/09 00:31:37;;;;;;;1.00;0.90;;;;;18.10;99677.00;;;;2079722;28;20214;-63
2021/05/09 00:32:38;;;;;;;1.30;1.20;;;;;18.10;99674.00;;;;2079512;28;20260;-63
2021/05/09 00:33:38;;;;;;;0.70;0.70;;;;;18.10;99673.00;;;;2079666;28;20222;-63
2021/05/09 00:34:38;;;;;;;1.00;0.90;;;;;18.10;99676.00;;;;2079355;28;20225;-63
2021/05/09 00:35:39;;;;;;;0.60;0.60;;;;;18.10;99671.00;;;;2078997;28;20299;-63
2021/05/09 00:36:39;;;;;;;0.80;0.80;;;;;18.10;99675.00;;;;2079683;28;20226;-63
2021/05/09 00:37:39;;;;;;;0.70;0.67;;;;;18.10;99673.00;;;;2079605;28;20210;-63
2021/05/09 00:38:40;;;;;;;0.77;0.70;;;;;18.10;99673.00;;;;2079263;28;20221;-63
2021/05/09 00:39:41;;;;;;;0.90;0.80;;;;;18.10;99677.00;;;;2079173;28;20256;-63
2021/05/09 00:40:41;;;;;;;1.10;1.00;;;;;18.10;99675.00;;;;2077242;28;20214;-63
2021/05/09 00:41:41;;;;;;;1.03;0.93;;;;;18.10;99675.00;;;;2078968;28;20210;-63
2021/05/09 00:42:42;;;;;;;0.80;0.70;;;;;18.10;99682.00;;;;2081202;28;20217;-64
2021/05/09 00:43:42;;;;;;;1.33;0.90;;;;;18.10;99675.00;;;;2080445;28;20225;-65
2021/05/09 00:44:42;;;;;;;0.70;0.70;;;;;18.10;99674.00;;;;2080262;28;20229;-65
2021/05/09 00:45:43;;;;;;;0.83;0.83;;;;;18.10;99673.00;;;;2081234;28;20264;-64
2021/05/09 00:46:43;;;;;;;1.03;0.93;;;;;18.00;99675.00;;;;2077106;28;20226;-65
2021/05/09 00:47:43;;;;;;;1.33;1.00;;;;;18.10;99671.00;;;;2081251;28;20256;-63
2021/05/09 00:48:44;;;;;;;0.80;0.80;;;;;18.00;99665.00;;;;2080575;28;20210;-63
2021/05/09 00:49:44;;;;;;;0.93;0.83;;;;;18.10;99662.00;;;;2080553;28;20724;-63
2021/05/09 00:50:45;;;;;;;0.97;0.70;;;;;18.00;99672.00;;;;2080436;28;20691;-62
2021/05/09 00:51:45;;;;;;;0.70;0.70;;;;;18.00;99664.00;;;;2081068;28;20217;-63
2021/05/09 00:52:47;;;;;;;0.97;0.87;;;;;18.10;99665.00;;;;2080558;28;20206;-63
2021/05/09 00:53:47;;;;;;;1.10;1.00;;;;;18.10;99666.00;;;;2080486;28;20256;-62
2021/05/09 00:55:17;;;;;;;1.03;0.93;;;;;18.10;99668.00;;;;2080292;28;20259;-63
2021/05/09 00:56:17;;;;;;;0.90;0.90;;;;;18.10;99664.00;;;;2058925;28;20247;-63
2021/05/09 00:57:18;;;;;;;1.30;0.93;;;;;18.10;99655.00;;;;2072365;28;20219;-63
2021/05/09 00:58:19;;;;;;;1.05;0.95;;;;;18.10;99641.00;;;;2076557;28;20217;-63
2021/05/09 00:59:19;;;;;;;0.77;0.73;;;;;18.00;99653.00;;;;2071936;28;20653;-63
2021/05/09 01:00:20;;;;;;;0.90;0.80;;;;;18.10;99652.00;;;;2064266;28;20219;-62
2021/05/09 01:01:20;;;;;;;1.10;1.00;;;;;18.10;99645.00;;;;2072148;28;20392;-63
2021/05/09 01:02:20;;;;;;;0.83;0.80;;;;;18.10;99659.00;;;;2061546;28;20277;-63
2021/05/09 01:03:26;;;;;;;0.97;0.87;;;;;18.10;99658.00;;;;2072234;28;20203;-63
2021/05/09 01:04:27;;;;;;;1.13;0.80;;;;;18.10;99656.00;;;;2080969;28;20314;-63
2021/05/09 01:05:27;;;;;;;1.33;0.97;;;;;18.10;99647.00;;;;2072232;28;20627;-63
2021/05/09 01:06:28;;;;;;;1.13;0.90;;;;;18.10;99656.00;;;;2056186;28;20334;-63
2021/05/09 01:07:28;;;;;;;0.90;0.77;;;;;18.10;99645.00;;;;2072144;28;20997;-63
2021/05/09 01:08:29;;;;;;;1.07;0.97;;;;;18.10;99650.00;;;;2063886;28;20505;-63
2021/05/09 01:09:29;;;;;;;1.07;0.97;;;;;18.10;99649.00;;;;2064113;28;20203;-63
2021/05/09 01:10:30;;;;;;;0.70;0.70;;;;;18.10;99645.00;;;;2078867;28;20242;-63
2021/05/09 01:11:30;;;;;;;1.03;0.80;;;;;18.00;99639.00;;;;2080436;28;20220;-62
2021/05/09 01:12:31;;;;;;;1.40;0.90;;;;;18.10;99648.00;;;;2080365;28;20448;-63
2021/05/09 01:13:32;;;;;;;0.77;0.70;;;;;18.10;99647.00;;;;2080959;28;20213;-63
2021/05/09 01:14:32;;;;;;;0.93;0.80;;;;;18.10;99640.00;;;;2080950;28;20233;-63
2021/05/09 01:15:32;;;;;;;0.90;0.80;;;;;18.10;99598.00;;;;2081083;28;20881;-63
2021/05/09 01:16:33;;;;;;;0.90;0.90;;;;;18.00;99637.00;;;;2080366;28;20613;-62
2021/05/09 01:17:33;;;;;;;0.80;0.80;;;;;18.00;99637.00;;;;2080397;28;21024;-63
2021/05/09 01:18:33;;;;;;;1.37;1.17;;;;;18.00;99640.00;;;;2081117;28;20635;-63
2021/05/09 01:19:34;;;;;;;0.70;0.67;;;;;18.00;99647.00;;;;2080927;28;20889;-63
2021/05/09 01:20:36;;;;;;;1.00;0.83;;;;;18.10;99636.00;;;;2080843;28;20795;-63
2021/05/09 01:21:36;;;;;;;0.80;0.73;;;;;18.10;99635.00;;;;2080153;28;20565;-62
2021/05/09 01:22:36;;;;;;;0.80;0.70;;;;;18.10;99639.00;;;;2080259;28;20309;-62
2021/05/09 01:23:37;;;;;;;1.73;0.70;;;;;18.00;99632.00;;;;2080584;28;22117;-62
2021/05/09 01:24:38;;;;;;;0.83;0.80;;;;;18.00;99628.00;;;;2080175;28;20226;-62
2021/05/09 01:25:38;;;;;;;1.75;0.82;;;;;18.00;99635.00;;;;2080227;28;20237;-63
2021/05/09 01:26:38;;;;;;;1.50;0.80;;;;;18.10;99626.00;;;;2080308;28;20871;-63
2021/05/09 01:27:39;;;;;;;1.00;0.90;;;;;18.00;99634.00;;;;2080462;28;20221;-63
2021/05/09 01:28:39;;;;;;;0.93;0.83;;;;;18.00;99627.00;;;;2080404;28;20220;-63
2021/05/09 01:29:39;;;;;;;0.73;0.73;;;;;18.10;99630.00;;;;2080492;28;20716;-63
2021/05/09 01:30:40;;;;;;;0.97;0.90;;;;;18.00;99634.00;;;;2080210;28;20615;-62
2021/05/09 01:31:46;;;;;;;1.00;1.00;;;;;18.00;99624.00;;;;2080447;28;20210;-63
2021/05/09 01:32:46;;;;;;;1.00;0.90;;;;;18.00;99630.00;;;;2081021;28;20210;-63
2021/05/09 01:33:46;;;;;;;0.70;0.70;;;;;18.00;99631.00;;;;2080879;28;20216;-63
2021/05/09 01:34:47;;;;;;;1.00;0.90;;;;;18.00;99627.00;;;;2080745;28;20222;-63
2021/05/09 01:35:47;;;;;;;0.77;0.70;;;;;18.10;99622.00;;;;2080575;28;20222;-63
2021/05/09 01:36:47;;;;;;;1.10;1.00;;;;;18.10;99618.00;;;;2080935;28;20213;-63
2021/05/09 01:37:48;;;;;;;0.83;0.77;;;;;18.10;99623.00;;;;2080887;28;20257;-63
2021/05/09 01:38:48;;;;;;;0.97;0.90;;;;;18.00;99627.00;;;;2080562;28;20735;-63
2021/05/09 01:39:48;;;;;;;0.97;0.80;;;;;18.00;99631.00;;;;2079416;28;20723;-63
2021/05/09 01:40:49;;;;;;;0.80;0.67;;;;;18.00;99624.00;;;;2080615;28;20617;-63
2021/05/09 01:41:49;;;;;;;1.37;1.00;;;;;18.10;99628.00;;;;2071870;28;20696;-63
2021/05/09 01:42:49;;;;;;;0.80;0.77;;;;;18.10;99620.00;;;;2071913;28;20221;-63
2021/05/09 01:43:50;;;;;;;1.47;0.97;;;;;18.10;99618.00;;;;2077696;28;20214;-63
2021/05/09 01:44:51;;;;;;;0.90;0.80;;;;;18.10;99619.00;;;;2080604;28;20213;-63
2021/05/09 01:45:51;;;;;;;1.20;1.10;;;;;18.10;99613.00;;;;2079567;28;20719;-64
2021/05/09 01:46:51;;;;;;;1.00;0.90;;;;;18.10;99612.00;;;;2080035;28;20253;-64
2021/05/09 01:47:52;;;;;;;1.67;0.70;;;;;18.10;99609.00;;;;2079419;28;20213;-63
2021/05/09 01:48:52;;;;;;;1.23;0.83;;;;;18.10;99609.00;;;;2079311;28;20222;-63
2021/05/09 01:49:53;;;;;;;0.97;0.80;;;;;18.10;99604.00;;;;2080234;28;20236;-63
2021/05/09 01:50:53;;;;;;;1.00;0.90;;;;;18.00;99611.00;;;;2079343;28;20210;-63
2021/05/09 01:51:55;;;;;;;0.80;0.80;;;;;18.00;99610.00;;;;2080438;28;20305;-63
2021/05/09 01:52:55;;;;;;;1.10;1.00;;;;;18.00;99617.00;;;;2076532;28;20221;-63
2021/05/09 01:53:55;;;;;;;0.87;0.87;;;;;18.10;99613.00;;;;2079251;28;20245;-63
2021/05/09 01:54:56;;;;;;;1.43;1.00;;;;;18.10;99612.00;;;;2079267;28;20221;-63
2021/05/09 01:55:56;;;;;;;1.00;0.90;;;;;18.10;99604.00;;;;2079882;28;20214;-63
2021/05/09 01:56:56;;;;;;;0.80;0.60;;;;;18.10;99604.00;;;;2079578;28;20244;-63
2021/05/09 01:57:57;;;;;;;0.80;0.80;;;;;18.10;99605.00;;;;2079886;28;20226;-63
2021/05/09 01:58:57;;;;;;;0.90;0.83;;;;;18.10;99607.00;;;;2079895;28;20222;-63
2021/05/09 01:59:58;;;;;;;1.90;0.70;;;;;18.10;99607.00;;;;2079996;28;20678;-63
2021/05/09 02:00:58;;;;;;;0.80;0.80;;;;;18.00;99602.00;;;;2080125;28;20620;-63
2021/05/09 02:01:59;;;;;;;0.80;0.63;;;;;18.10;99600.00;;;;2080313;28;20246;-62
2021/05/09 02:03:00;;;;;;;0.80;0.80;;;;;18.10;99591.00;;;;2080146;28;20222;-63
2021/05/09 02:04:00;;;;;;;2.40;1.47;;;;;18.10;99596.00;;;;2079079;28;20588;-62
2021/05/09 02:05:00;;;;;;;1.20;0.90;;;;;18.10;99588.00;;;;2079909;28;20214;-63
2021/05/09 02:06:01;;;;;;;1.10;0.90;;;;;18.10;99588.00;;;;2080026;28;20261;-63
2021/05/09 02:07:01;;;;;;;0.80;0.70;;;;;18.10;99593.00;;;;2080211;28;20240;-63
2021/05/09 02:08:01;;;;;;;0.90;0.73;;;;;18.10;99593.00;;;;2079863;28;20225;-63
2021/05/09 02:09:02;;;;;;;0.87;0.87;;;;;18.10;99591.00;;;;2080064;28;20206;-63
2021/05/09 02:10:06;;;;;;;1.27;0.83;;;;;18.10;99600.00;;;;2079897;28;20226;-63
2021/05/09 02:11:06;;;;;;;1.20;1.10;;;;;18.10;99598.00;;;;2079920;28;20228;-63
2021/05/09 02:12:07;;;;;;;1.13;0.90;;;;;18.10;99594.00;;;;2080064;28;20206;-63
2021/05/09 02:13:07;;;;;;;0.90;0.80;;;;;18.10;99594.00;;;;2079820;28;20249;-62
2021/05/09 02:14:08;;;;;;;1.00;0.90;;;;;18.10;99596.00;;;;2079859;28;20553;-62
2021/05/09 02:15:09;;;;;;;1.42;0.98;;;;;18.00;99594.00;;;;2080143;28;20320;-63
2021/05/09 02:16:10;;;;;;;0.90;0.63;;;;;18.10;99591.00;;;;2080281;28;20260;-63
2021/05/09 02:17:11;;;;;;;0.80;0.70;;;;;18.00;99592.00;;;;2080573;28;20460;-63
2021/05/09 02:18:11;;;;;;;0.90;0.80;;;;;18.10;99591.00;;;;2080662;28;20236;-63
2021/05/09 02:19:11;;;;;;;1.10;1.00;;;;;18.10;99585.00;;;;2080541;28;20208;-63
2021/05/09 02:20:12;;;;;;;1.20;0.90;;;;;18.10;99578.00;;;;2080655;28;20210;-63
2021/05/09 02:21:13;;;;;;;0.90;0.77;;;;;18.10;99585.00;;;;2080281;28;20214;-63
2021/05/09 02:22:13;;;;;;;1.00;1.00;;;;;18.00;99579.00;;;;2080591;28;20480;-62
2021/05/09 02:23:13;;;;;;;0.97;0.77;;;;;18.00;99576.00;;;;2080551;28;20218;-64
2021/05/09 02:24:14;;;;;;;1.00;1.00;;;;;18.10;99580.00;;;;2080494;28;20229;-63
2021/05/09 02:25:14;;;;;;;1.07;0.97;;;;;18.10;99566.00;;;;2079974;28;20632;-63
2021/05/09 02:26:15;;;;;;;1.00;0.90;;;;;18.00;99576.00;;;;2080352;28;20842;-63
2021/05/09 02:27:15;;;;;;;0.90;0.90;;;;;18.00;99571.00;;;;2080279;28;20250;-63
2021/05/09 02:28:15;;;;;;;1.00;0.80;;;;;18.10;99563.00;;;;2080381;28;20248;-62
2021/05/09 02:29:16;;;;;;;1.00;0.90;;;;;18.10;99567.00;;;;2080592;28;20218;-63
2021/05/09 02:30:16;;;;;;;1.37;0.90;;;;;18.00;99566.00;;;;2080542;28;20214;-63
2021/05/09 02:31:17;;;;;;;2.70;0.90;;;;;18.10;99556.00;;;;2080535;28;20228;-63
2021/05/09 02:32:17;;;;;;;0.80;0.70;;;;;18.10;99560.00;;;;2080489;28;20853;-63
2021/05/09 02:33:17;;;;;;;2.00;1.03;;;;;18.00;99564.00;;;;2080508;28;20233;-63
2021/05/09 02:34:18;;;;;;;0.93;0.80;;;;;18.00;99564.00;;;;2080388;28;20732;-63
2021/05/09 02:35:18;;;;;;;0.80;0.80;;;;;18.00;99576.00;;;;2080306;28;21020;-63
2021/05/09 02:36:18;;;;;;;1.20;0.90;;;;;18.10;99578.00;;;;2080301;28;20587;-63
2021/05/09 02:37:19;;;;;;;1.37;0.97;;;;;18.00;99573.00;;;;2080417;28;20956;-63
2021/05/09 02:38:19;;;;;;;0.70;0.70;;;;;18.00;99566.00;;;;2080452;28;20676;-63
2021/05/09 02:39:19;;;;;;;1.50;0.83;;;;;18.10;99555.00;;;;2080436;28;20616;-63
2021/05/09 02:40:20;;;;;;;1.00;0.90;;;;;18.10;99560.00;;;;2080086;28;20627;-63
2021/05/09 02:41:20;;;;;;;1.00;0.80;;;;;18.00;99560.00;;;;2080273;28;20233;-62
2021/05/09 02:42:21;;;;;;;0.90;0.80;;;;;18.10;99549.00;;;;2080267;28;20228;-63
2021/05/09 02:43:21;;;;;;;0.97;0.80;;;;;18.10;99557.00;;;;2080383;28;20976;-63
2021/05/09 02:44:21;;;;;;;0.80;0.80;;;;;18.10;99552.00;;;;2080120;28;20672;-63
2021/05/09 02:45:22;;;;;;;0.90;0.90;;;;;18.10;99554.00;;;;2080440;28;20692;-63
2021/05/09 02:46:22;;;;;;;1.07;1.00;;;;;18.10;99552.00;;;;2080300;28;20750;-63
2021/05/09 02:47:29;;;;;;;1.20;1.10;;;;;18.00;99545.00;;;;2080369;28;20728;-63
2021/05/09 02:48:30;;;;;;;1.13;0.80;;;;;18.00;99548.00;;;;2076569;28;20599;-63
2021/05/09 02:49:31;;;;;;;0.60;0.60;;;;;18.00;99549.00;;;;2079962;28;20210;-63
2021/05/09 02:50:31;;;;;;;1.00;0.90;;;;;18.00;99545.00;;;;2080169;28;20206;-63
2021/05/09 02:51:31;;;;;;;0.93;0.80;;;;;18.00;99545.00;;;;2080182;28;20264;-63
2021/05/09 02:52:31;;;;;;;1.10;1.00;;;;;18.00;99551.00;;;;2080295;28;20206;-63
2021/05/09 02:53:32;;;;;;;1.17;1.07;;;;;18.00;99537.00;;;;2080264;28;20212;-63
2021/05/09 02:54:33;;;;;;;0.90;0.80;;;;;18.10;99545.00;;;;2079845;28;20214;-63
2021/05/09 02:55:33;;;;;;;1.13;0.90;;;;;18.10;99541.00;;;;2078995;28;20202;-63
2021/05/09 02:56:33;;;;;;;0.83;0.80;;;;;18.10;99539.00;;;;2079511;28;20463;-63
2021/05/09 02:57:34;;;;;;;0.80;0.80;;;;;18.00;99541.00;;;;2080084;28;20272;-63
2021/05/09 02:58:34;;;;;;;1.00;0.90;;;;;18.00;99540.00;;;;2080146;28;20564;-63
2021/05/09 02:59:34;;;;;;;0.80;0.70;;;;;18.10;99540.00;;;;2080262;28;20587;-63
2021/05/09 03:00:35;;;;;;;0.90;0.90;;;;;18.10;99537.00;;;;2076950;28;20213;-63
2021/05/09 03:01:35;;;;;;;0.93;0.83;;;;;18.10;99538.00;;;;2080126;28;20217;-63
2021/05/09 03:02:35;;;;;;;0.97;0.90;;;;;18.00;99539.00;;;;2080033;28;20206;-63
2021/05/09 03:03:36;;;;;;;1.10;0.90;;;;;18.00;99534.00;;;;2080276;28;20264;-63
2021/05/09 03:04:36;;;;;;;0.97;0.80;;;;;18.10;99538.00;;;;2079530;28;20241;-63
2021/05/09 03:05:36;;;;;;;1.00;0.93;;;;;18.00;99546.00;;;;2080088;28;20220;-63
2021/05/09 03:06:37;;;;;;;1.10;1.00;;;;;18.10;99535.00;;;;2080037;28;20228;-63
2021/05/09 03:07:37;;;;;;;1.03;0.73;;;;;18.00;99534.00;;;;2080231;28;20303;-64
2021/05/09 03:08:37;;;;;;;1.00;0.90;;;;;18.00;99539.00;;;;2080268;28;20956;-63
2021/05/09 03:09:38;;;;;;;1.00;1.00;;;;;18.00;99535.00;;;;2079902;28;20572;-63
2021/05/09 03:10:39;;;;;;;0.90;0.80;;;;;18.00;99541.00;;;;2079986;28;20676;-62
2021/05/09 03:11:39;;;;;;;0.77;0.60;;;;;18.10;99539.00;;;;2079416;28;20728;-62
2021/05/09 03:12:40;;;;;;;1.00;0.80;;;;;18.00;99537.00;;;;2080048;28;20209;-62
2021/05/09 03:13:40;;;;;;;1.20;0.70;;;;;18.10;99541.00;;;;2080173;28;20685;-63
2021/05/09 03:14:40;;;;;;;1.10;1.00;;;;;18.10;99539.00;;;;2079937;28;20747;-63
2021/05/09 03:15:41;;;;;;;0.80;0.80;;;;;18.00;99540.00;;;;2080077;28;20228;-63
2021/05/09 03:16:41;;;;;;;0.70;0.70;;;;;18.10;99539.00;;;;2079999;28;20241;-63
2021/05/09 03:17:41;;;;;;;0.80;0.80;;;;;18.10;99538.00;;;;2080086;28;20210;-63
2021/05/09 03:18:42;;;;;;;0.70;0.70;;;;;18.10;99536.00;;;;2080110;28;20238;-63
2021/05/09 03:19:42;;;;;;;0.90;0.90;;;;;18.10;99535.00;;;;2079706;28;20255;-63
2021/05/09 03:20:42;;;;;;;1.10;1.00;;;;;18.10;99536.00;;;;2080001;28;20213;-63
2021/05/09 03:21:43;;;;;;;1.10;0.87;;;;;18.10;99534.00;;;;2079924;28;20234;-63
2021/05/09 03:22:43;;;;;;;1.00;0.73;;;;;18.10;99538.00;;;;2079866;28;20206;-63
2021/05/09 03:23:43;;;;;;;1.07;0.80;;;;;18.10;99534.00;;;;2080043;28;20210;-63
2021/05/09 03:24:44;;;;;;;1.37;1.00;;;;;18.00;99536.00;;;;2079829;28;20264;-63
2021/05/09 03:25:45;;;;;;;1.00;0.83;;;;;18.00;99536.00;;;;2080104;28;20241;-63
2021/05/09 03:26:45;;;;;;;1.10;1.00;;;;;18.00;99539.00;;;;2080038;28;20656;-63
2021/05/09 03:27:46;;;;;;;1.17;1.07;;;;;18.10;99531.00;;;;2080143;28;20213;-62
2021/05/09 03:28:46;;;;;;;1.00;0.80;;;;;18.10;99534.00;;;;2079999;28;20562;-63
2021/05/09 03:29:46;;;;;;;0.77;0.70;;;;;18.00;99535.00;;;;2079794;28;21079;-63
2021/05/09 03:30:47;;;;;;;0.80;0.80;;;;;18.00;99530.00;;;;2080085;28;20218;-63
2021/05/09 03:31:47;;;;;;;0.73;0.70;;;;;18.10;99542.00;;;;2079377;28;20248;-63
2021/05/09 03:32:47;;;;;;;1.57;0.80;;;;;18.00;99535.00;;;;2071222;28;20214;-63
2021/05/09 03:33:48;;;;;;;0.93;0.90;;;;;18.00;99539.00;;;;2079418;28;20248;-63
2021/05/09 03:34:48;;;;;;;1.07;0.97;;;;;18.10;99540.00;;;;2079659;28;20244;-63
2021/05/09 03:35:48;;;;;;;0.90;0.80;;;;;18.00;99532.00;;;;2079967;28;20222;-63
2021/05/09 03:36:49;;;;;;;1.20;1.00;;;;;18.10;99543.00;;;;2079801;28;20236;-63
2021/05/09 03:37:49;;;;;;;0.83;0.83;;;;;18.00;99545.00;;;;2079975;28;20689;-63
2021/05/09 03:38:49;;;;;;;1.07;1.00;;;;;18.10;99539.00;;;;2079897;28;20641;-62
2021/05/09 03:39:50;;;;;;;0.90;0.90;;;;;18.10;99540.00;;;;2079053;28;20214;-63
2021/05/09 03:40:50;;;;;;;0.80;0.80;;;;;18.10;99532.00;;;;2079140;28;20210;-63
2021/05/09 03:41:50;;;;;;;1.20;0.87;;;;;18.10;99530.00;;;;2079936;28;20242;-63
2021/05/09 03:42:51;;;;;;;1.03;0.97;;;;;18.10;99532.00;;;;2079767;28;20220;-63
2021/05/09 03:43:51;;;;;;;0.70;0.70;;;;;18.10;99530.00;;;;2079721;28;20214;-63
2021/05/09 03:44:51;;;;;;;1.10;1.00;;;;;18.10;99526.00;;;;2079500;28;20284;-63
2021/05/09 03:45:52;;;;;;;1.03;0.90;;;;;18.00;99526.00;;;;2079691;28;20343;-63
2021/05/09 03:46:52;;;;;;;0.87;0.80;;;;;18.10;99527.00;;;;2079537;28;20206;-62
2021/05/09 03:47:52;;;;;;;1.20;0.93;;;;;18.00;99528.00;;;;2079859;28;20202;-62
2021/05/09 03:48:53;;;;;;;0.90;0.83;;;;;18.00;99521.00;;;;2079955;28;20236;-63
2021/05/09 03:49:53;;;;;;;1.50;1.10;;;;;18.10;99524.00;;;;2079925;28;20202;-63
2021/05/09 03:50:54;;;;;;;1.03;0.93;;;;;18.00;99520.00;;;;2079742;28;20237;-63
2021/05/09 03:51:54;;;;;;;1.10;1.00;;;;;18.00;99523.00;;;;2079626;28;20581;-63
2021/05/09 03:52:54;;;;;;;0.90;0.80;;;;;18.10;99518.00;;;;2079940;28;20210;-63
2021/05/09 03:53:55;;;;;;;1.20;1.10;;;;;18.00;99523.00;;;;2079948;28;20214;-63
2021/05/09 03:54:55;;;;;;;0.80;0.80;;;;;18.10;99514.00;;;;2079440;28;20225;-63
2021/05/09 03:55:56;;;;;;;0.90;0.80;;;;;18.10;99511.00;;;;2079094;28;20228;-62
2021/05/09 03:56:57;;;;;;;1.00;0.90;;;;;18.10;99515.00;;;;2079903;28;20222;-63
2021/05/09 03:57:57;;;;;;;0.93;0.80;;;;;18.10;99513.00;;;;2079895;28;20592;-63
2021/05/09 03:58:57;;;;;;;1.00;0.70;;;;;18.00;99509.00;;;;2079763;28;20720;-63
2021/05/09 03:59:58;;;;;;;1.07;0.90;;;;;18.00;99519.00;;;;2079908;28;20218;-63
2021/05/09 04:00:58;;;;;;;0.93;0.80;;;;;18.00;99527.00;;;;2079511;28;20388;-62
2021/05/09 04:01:58;;;;;;;0.90;0.70;;;;;18.00;99522.00;;;;2079865;28;20237;-63
2021/05/09 04:02:59;;;;;;;1.13;1.03;;;;;18.00;99524.00;;;;2079918;28;20221;-63
2021/05/09 04:03:59;;;;;;;0.83;0.80;;;;;18.00;99528.00;;;;2080020;28;20210;-63
2021/05/09 04:04:59;;;;;;;1.10;1.00;;;;;18.00;99523.00;;;;2079626;28;21245;-62
2021/05/09 04:06:00;;;;;;;0.80;0.80;;;;;18.00;99522.00;;;;2078728;28;20257;-63
2021/05/09 04:07:00;;;;;;;1.20;0.90;;;;;18.10;99528.00;;;;2078949;28;20241;-63
2021/05/09 04:08:00;;;;;;;0.63;0.63;;;;;18.00;99531.00;;;;2079223;28;20222;-63
2021/05/09 04:09:01;;;;;;;0.90;0.70;;;;;18.10;99524.00;;;;2079297;28;20218;-63
2021/05/09 04:10:01;;;;;;;1.17;0.87;;;;;18.10;99526.00;;;;2079216;28;20225;-62
2021/05/09 04:11:02;;;;;;;0.90;0.73;;;;;18.10;99526.00;;;;2078326;28;20264;-63
2021/05/09 04:12:05;;;;;;;0.98;0.93;;;;;18.00;99523.00;;;;2075457;28;20220;-63
2021/05/09 04:13:05;;;;;;;1.02;0.82;;;;;18.10;99527.00;;;;2078587;28;20218;-62
2021/05/09 04:14:05;;;;;;;1.33;1.23;;;;;18.00;99532.00;;;;2078396;28;20768;-63
2021/05/09 04:15:06;;;;;;;1.10;1.00;;;;;18.00;99526.00;;;;2078697;28;20609;-62
2021/05/09 04:16:06;;;;;;;0.80;0.80;;;;;18.00;99532.00;;;;2078786;28;20214;-62
2021/05/09 04:17:07;;;;;;;1.00;0.90;;;;;18.10;99537.00;;;;2078668;28;20476;-63
2021/05/09 04:18:07;;;;;;;1.03;0.97;;;;;18.00;99540.00;;;;2079167;28;20237;-62
2021/05/09 04:19:07;;;;;;;1.33;1.10;;;;;18.00;99546.00;;;;2079186;28;20216;-63
2021/05/09 04:20:08;;;;;;;1.10;1.00;;;;;18.00;99535.00;;;;2079171;28;20217;-63
2021/05/09 04:21:09;;;;;;;0.80;0.80;;;;;18.00;99538.00;;;;2078876;28;20253;-63
2021/05/09 04:22:09;;;;;;;0.90;0.80;;;;;18.00;99534.00;;;;2079123;28;20469;-62
2021/05/09 04:23:14;;;;;;;0.80;0.80;;;;;18.00;99530.00;;;;2078913;28;20711;-63
2021/05/09 04:24:14;;;;;;;0.93;0.80;;;;;18.10;99526.00;;;;2079124;28;20302;-64
2021/05/09 04:25:15;;;;;;;1.07;0.97;;;;;18.10;99524.00;;;;2078724;28;20748;-63
2021/05/09 04:26:15;;;;;;;0.80;0.70;;;;;18.10;99521.00;;;;2077892;28;20258;-63
2021/05/09 04:27:16;;;;;;;1.23;1.00;;;;;18.10;99513.00;;;;2078417;28;20233;-64
2021/05/09 04:28:16;;;;;;;0.83;0.70;;;;;18.00;99525.00;;;;2078587;28;20299;-63
2021/05/09 04:29:17;;;;;;;1.20;1.10;;;;;18.00;99521.00;;;;2079189;28;20225;-63
2021/05/09 04:30:18;;;;;;;0.93;0.60;;;;;18.00;99526.00;;;;2079114;28;20214;-63
2021/05/09 04:31:18;;;;;;;1.20;1.10;;;;;18.10;99512.00;;;;2078918;28;20739;-62
2021/05/09 04:32:19;;;;;;;1.10;0.73;;;;;18.10;99516.00;;;;2078753;28;20511;-63
2021/05/09 04:33:24;;;;;;;1.10;0.83;;;;;18.10;99517.00;;;;2079085;28;20210;-63
2021/05/09 04:34:24;;;;;;;1.27;0.73;;;;;18.10;99525.00;;;;2078990;28;20214;-63
2021/05/09 04:35:25;;;;;;;1.07;0.90;;;;;18.10;99520.00;;;;2079025;28;20226;-63
2021/05/09 04:36:25;;;;;;;0.80;0.80;;;;;18.10;99516.00;;;;2079139;28;20210;-62
2021/05/09 04:37:25;;;;;;;1.00;0.90;;;;;18.00;99520.00;;;;2079367;28;20213;-63
2021/05/09 04:38:26;;;;;;;1.10;1.00;;;;;18.10;99516.00;;;;2077971;28;20206;-63
2021/05/09 04:39:26;;;;;;;0.90;0.80;;;;;18.10;99510.00;;;;2078650;28;20229;-62
2021/05/09 04:40:29;;;;;;;0.97;0.87;;;;;18.10;99523.00;;;;2079652;28;20251;-63
2021/05/09 04:41:30;;;;;;;0.98;0.90;;;;;18.00;99508.00;;;;2076586;28;20242;-63
2021/05/09 04:42:30;;;;;;;1.03;0.93;;;;;17.90;99523.00;;;;2079057;28;20557;-63
2021/05/09 04:43:31;;;;;;;0.90;0.80;;;;;18.10;99521.00;;;;2079703;28;20214;-62
2021/05/09 04:44:31;;;;;;;0.80;0.80;;;;;18.10;99514.00;;;;2079539;28;20214;-63
2021/05/09 04:45:31;;;;;;;1.40;1.00;;;;;18.10;99509.00;;;;2079432;28;20309;-62
2021/05/09 04:46:32;;;;;;;1.10;1.00;;;;;18.10;99516.00;;;;2079701;28;20216;-63
2021/05/09 04:47:32;;;;;;;2.00;1.30;;;;;18.10;99517.00;;;;2079583;28;20669;-63
2021/05/09 04:48:32;;;;;;;1.30;1.03;;;;;18.10;99521.00;;;;2079634;28;20581;-63
2021/05/09 04:49:33;;;;;;;0.83;0.83;;;;;18.10;99516.00;;;;2078780;28;20712;-62
2021/05/09 04:50:33;;;;;;;1.10;1.00;;;;;18.10;99513.00;;;;2078908;28;20248;-63
2021/05/09 04:51:34;;;;;;;1.00;0.90;;;;;18.10;99518.00;;;;2078661;28;20707;-62
2021/05/09 04:52:34;;;;;;;0.93;0.90;;;;;18.10;99516.00;;;;2079594;28;20212;-63
2021/05/09 04:53:36;;;;;;;1.13;1.03;;;;;18.10;99519.00;;;;2075656;28;20253;-63
2021/05/09 04:54:36;;;;;;;1.10;0.95;;;;;18.10;99520.00;;;;2079522;28;20233;-62
2021/05/09 04:55:36;;;;;;;1.03;1.00;;;;;18.10;99525.00;;;;2079535;28;20209;-63
2021/05/09 04:56:37;;;;;;;0.77;0.77;;;;;18.10;99521.00;;;;2078865;28;20202;-62
2021/05/09 04:57:37;;;;;;;0.77;0.77;;;;;18.10;99514.00;;;;2078924;28;20217;-62
2021/05/09 04:58:38;;;;;;;0.97;0.87;;;;;18.10;99513.00;;;;2079636;28;20688;-63
2021/05/09 04:59:39;;;;;;;0.80;0.70;;;;;18.10;99517.00;;;;2079376;28;20233;-63
2021/05/09 05:00:39;;;;;;;0.77;0.77;;;;;18.10;99506.00;;;;2079165;28;20580;-63
2021/05/09 05:01:39;;;;;;;0.80;0.73;;;;;18.10;99505.00;;;;2079046;28;20225;-62
2021/05/09 05:02:49;;;;;;;1.00;0.87;;;;;18.10;99507.00;;;;2078973;28;20279;-62
2021/05/09 05:03:49;;;;;;;0.98;0.70;;;;;18.10;99500.00;;;;2076118;28;20217;-63